sensor_id;sensor_type;location;lat;lon;timestamp;P1;durP1;ratioP1;P2;durP2;ratioP2
22673;SDS011;11504;43.334;21.918;2023-04-05T00:00:39;16.0;;;15.0;;
22673;SDS011;11504;43.334;21.918;2023-04-05T00:05:16;16.0;;;15.0;;
22673;SDS011;11504;43.334;21.918;2023-04-05T00:09:53;17.0;;;16.0;;
22673;SDS011;11504;43.334;21.918;2023-04-05T00:14:30;17.0;;;16.0;;
22673;SDS011;11504;43.334;21.918;2023-04-05T00:19:07;17.0;;;16.0;;
22673;SDS011;11504;43.334;21.918;2023-04-05T00:23:44;18.0;;;18.0;;
22673;SDS011;11504;43.334;21.918;2023-04-05T00:28:21;18.0;;;18.0;;
22673;SDS011;11504;43.334;21.918;2023-04-05T00:32:58;18.0;;;16.0;;
22673;SDS011;11504;43.334;21.918;2023-04-05T00:37:36;18.0;;;16.0;;
22673;SDS011;11504;43.334;21.918;2023-04-05T00:42:13;17.0;;;15.0;;
22673;SDS011;11504;43.334;21.918;2023-04-05T00:46:50;17.0;;;15.0;;
22673;SDS011;11504;43.334;21.918;2023-04-05T00:51:26;16.0;;;14.0;;
22673;SDS011;11504;43.334;21.918;2023-04-05T00:56:06;16.0;;;14.0;;
22673;SDS011;11504;43.334;21.918;2023-04-05T01:00:45;15.0;;;14.0;;
22673;SDS011;11504;43.334;21.918;2023-04-05T01:05:54;15.0;;;14.0;;
22673;SDS011;11504;43.334;21.918;2023-04-05T01:11:08;14.0;;;14.0;;
22673;SDS011;11504;43.334;21.918;2023-04-05T01:15:50;14.0;;;14.0;;
22673;SDS011;11504;43.334;21.918;2023-04-05T01:20:27;13.0;;;13.0;;
22673;SDS011;11504;43.334;21.918;2023-04-05T01:25:34;13.0;;;13.0;;
22673;SDS011;11504;43.334;21.918;2023-04-05T01:31:31;14.0;;;13.0;;
22673;SDS011;11504;43.334;21.918;2023-04-05T01:36:35;14.0;;;13.0;;
22673;SDS011;11504;43.334;21.918;2023-04-05T01:41:32;14.0;;;13.0;;
22673;SDS011;11504;43.334;21.918;2023-04-05T01:46:09;14.0;;;13.0;;
22673;SDS011;11504;43.334;21.918;2023-04-05T01:50:46;15.0;;;14.0;;
22673;SDS011;11504;43.334;21.918;2023-04-05T01:55:22;15.0;;;14.0;;
22673;SDS011;11504;43.334;21.918;2023-04-05T01:59:59;16.0;;;15.0;;
22673;SDS011;11504;43.334;21.918;2023-04-05T02:04:37;16.0;;;15.0;;
22673;SDS011;11504;43.334;21.918;2023-04-05T02:09:14;16.0;;;15.0;;
22673;SDS011;11504;43.334;21.918;2023-04-05T02:13:52;14.0;;;14.0;;
22673;SDS011;11504;43.334;21.918;2023-04-05T02:18:28;14.0;;;14.0;;
22673;SDS011;11504;43.334;21.918;2023-04-05T02:23:05;13.0;;;12.0;;
22673;SDS011;11504;43.334;21.918;2023-04-05T02:27:43;13.0;;;12.0;;
22673;SDS011;11504;43.334;21.918;2023-04-05T02:32:22;12.0;;;12.0;;
22673;SDS011;11504;43.334;21.918;2023-04-05T02:36:59;12.0;;;12.0;;
22673;SDS011;11504;43.334;21.918;2023-04-05T02:41:36;12.0;;;12.0;;
22673;SDS011;11504;43.334;21.918;2023-04-05T02:46:13;12.0;;;12.0;;
22673;SDS011;11504;43.334;21.918;2023-04-05T02:50:50;12.0;;;12.0;;
22673;SDS011;11504;43.334;21.918;2023-04-05T02:55:27;12.0;;;12.0;;
22673;SDS011;11504;43.334;21.918;2023-04-05T03:00:04;13.0;;;12.0;;
22673;SDS011;11504;43.334;21.918;2023-04-05T03:04:46;13.0;;;12.0;;
22673;SDS011;11504;43.334;21.918;2023-04-05T03:09:26;13.0;;;12.0;;
22673;SDS011;11504;43.334;21.918;2023-04-05T03:14:05;13.0;;;12.0;;
22673;SDS011;11504;43.334;21.918;2023-04-05T03:18:42;13.0;;;12.0;;
22673;SDS011;11504;43.334;21.918;2023-04-05T03:23:18;13.0;;;12.0;;
22673;SDS011;11504;43.334;21.918;2023-04-05T03:27:55;13.0;;;12.0;;
22673;SDS011;11504;43.334;21.918;2023-04-05T03:32:32;13.0;;;12.0;;
22673;SDS011;11504;43.334;21.918;2023-04-05T03:37:09;13.0;;;12.0;;
22673;SDS011;11504;43.334;21.918;2023-04-05T03:41:46;13.0;;;13.0;;
22673;SDS011;11504;43.334;21.918;2023-04-05T03:46:23;13.0;;;13.0;;
22673;SDS011;11504;43.334;21.918;2023-04-05T03:50:59;13.0;;;12.0;;
22673;SDS011;11504;43.334;21.918;2023-04-05T03:55:36;13.0;;;12.0;;
22673;SDS011;11504;43.334;21.918;2023-04-05T04:00:12;13.0;;;12.0;;
22673;SDS011;11504;43.334;21.918;2023-04-05T04:04:50;13.0;;;12.0;;
22673;SDS011;11504;43.334;21.918;2023-04-05T04:09:26;13.0;;;12.0;;
22673;SDS011;11504;43.334;21.918;2023-04-05T04:14:03;14.0;;;12.0;;
22673;SDS011;11504;43.334;21.918;2023-04-05T04:18:40;14.0;;;12.0;;
22673;SDS011;11504;43.334;21.918;2023-04-05T04:23:16;14.0;;;13.0;;
22673;SDS011;11504;43.334;21.918;2023-04-05T04:27:53;14.0;;;13.0;;
22673;SDS011;11504;43.334;21.918;2023-04-05T04:32:30;14.0;;;14.0;;
22673;SDS011;11504;43.334;21.918;2023-04-05T04:37:07;14.0;;;14.0;;
22673;SDS011;11504;43.334;21.918;2023-04-05T04:41:44;15.0;;;14.0;;
22673;SDS011;11504;43.334;21.918;2023-04-05T04:46:20;15.0;;;14.0;;
22673;SDS011;11504;43.334;21.918;2023-04-05T04:50:57;14.0;;;14.0;;
22673;SDS011;11504;43.334;21.918;2023-04-05T04:55:38;14.0;;;14.0;;
22673;SDS011;11504;43.334;21.918;2023-04-05T05:00:15;14.0;;;13.0;;
22673;SDS011;11504;43.334;21.918;2023-04-05T05:04:55;14.0;;;13.0;;
22673;SDS011;11504;43.334;21.918;2023-04-05T05:09:31;14.0;;;13.0;;
22673;SDS011;11504;43.334;21.918;2023-04-05T05:14:08;16.0;;;16.0;;
22673;SDS011;11504;43.334;21.918;2023-04-05T05:18:44;16.0;;;16.0;;
22673;SDS011;11504;43.334;21.918;2023-04-05T05:23:21;19.0;;;18.0;;
22673;SDS011;11504;43.334;21.918;2023-04-05T05:27:58;19.0;;;18.0;;
22673;SDS011;11504;43.334;21.918;2023-04-05T05:32:34;18.0;;;16.0;;
22673;SDS011;11504;43.334;21.918;2023-04-05T05:37:11;18.0;;;16.0;;
22673;SDS011;11504;43.334;21.918;2023-04-05T05:41:48;16.0;;;15.0;;
22673;SDS011;11504;43.334;21.918;2023-04-05T05:46:25;16.0;;;15.0;;
22673;SDS011;11504;43.334;21.918;2023-04-05T05:51:02;16.0;;;15.0;;
22673;SDS011;11504;43.334;21.918;2023-04-05T05:55:39;16.0;;;15.0;;
22673;SDS011;11504;43.334;21.918;2023-04-05T06:00:17;16.0;;;15.0;;
22673;SDS011;11504;43.334;21.918;2023-04-05T06:04:56;16.0;;;15.0;;
22673;SDS011;11504;43.334;21.918;2023-04-05T06:09:33;16.0;;;15.0;;
22673;SDS011;11504;43.334;21.918;2023-04-05T06:14:10;16.0;;;16.0;;
22673;SDS011;11504;43.334;21.918;2023-04-05T06:18:47;16.0;;;16.0;;
22673;SDS011;11504;43.334;21.918;2023-04-05T06:23:24;17.0;;;16.0;;
22673;SDS011;11504;43.334;21.918;2023-04-05T06:28:01;17.0;;;16.0;;
22673;SDS011;11504;43.334;21.918;2023-04-05T06:32:41;18.0;;;18.0;;
22673;SDS011;11504;43.334;21.918;2023-04-05T06:37:18;18.0;;;18.0;;
22673;SDS011;11504;43.334;21.918;2023-04-05T06:41:54;20.0;;;19.0;;
22673;SDS011;11504;43.334;21.918;2023-04-05T06:46:30;20.0;;;19.0;;
22673;SDS011;11504;43.334;21.918;2023-04-05T06:51:07;24.0;;;23.0;;
22673;SDS011;11504;43.334;21.918;2023-04-05T06:55:47;24.0;;;23.0;;
22673;SDS011;11504;43.334;21.918;2023-04-05T07:00:24;28.0;;;27.0;;
22673;SDS011;11504;43.334;21.918;2023-04-05T07:05:01;28.0;;;27.0;;
22673;SDS011;11504;43.334;21.918;2023-04-05T07:09:40;28.0;;;27.0;;
22673;SDS011;11504;43.334;21.918;2023-04-05T07:14:17;28.0;;;27.0;;
22673;SDS011;11504;43.334;21.918;2023-04-05T07:18:54;28.0;;;27.0;;
22673;SDS011;11504;43.334;21.918;2023-04-05T07:23:32;28.0;;;27.0;;
22673;SDS011;11504;43.334;21.918;2023-04-05T07:28:09;28.0;;;27.0;;
22673;SDS011;11504;43.334;21.918;2023-04-05T07:32:46;28.0;;;27.0;;
22673;SDS011;11504;43.334;21.918;2023-04-05T07:37:23;28.0;;;27.0;;
22673;SDS011;11504;43.334;21.918;2023-04-05T07:42:00;29.0;;;27.0;;
22673;SDS011;11504;43.334;21.918;2023-04-05T07:46:37;29.0;;;27.0;;
22673;SDS011;11504;43.334;21.918;2023-04-05T07:51:14;28.0;;;27.0;;
22673;SDS011;11504;43.334;21.918;2023-04-05T07:55:51;28.0;;;27.0;;
22673;SDS011;11504;43.334;21.918;2023-04-05T08:00:28;28.0;;;27.0;;
22673;SDS011;11504;43.334;21.918;2023-04-05T08:05:04;28.0;;;27.0;;
22673;SDS011;11504;43.334;21.918;2023-04-05T08:09:42;28.0;;;27.0;;
22673;SDS011;11504;43.334;21.918;2023-04-05T08:14:19;28.0;;;26.0;;
22673;SDS011;11504;43.334;21.918;2023-04-05T08:18:55;28.0;;;26.0;;
22673;SDS011;11504;43.334;21.918;2023-04-05T08:23:32;28.0;;;26.0;;
22673;SDS011;11504;43.334;21.918;2023-04-05T08:28:09;28.0;;;26.0;;
22673;SDS011;11504;43.334;21.918;2023-04-05T08:32:46;30.0;;;27.0;;
22673;SDS011;11504;43.334;21.918;2023-04-05T08:37:23;30.0;;;27.0;;
22673;SDS011;11504;43.334;21.918;2023-04-05T08:42:02;32.0;;;28.0;;
22673;SDS011;11504;43.334;21.918;2023-04-05T08:47:04;32.0;;;28.0;;
22673;SDS011;11504;43.334;21.918;2023-04-05T08:51:47;30.0;;;28.0;;
22673;SDS011;11504;43.334;21.918;2023-04-05T08:56:24;30.0;;;28.0;;
22673;SDS011;11504;43.334;21.918;2023-04-05T09:01:10;29.0;;;27.0;;
22673;SDS011;11504;43.334;21.918;2023-04-05T09:05:48;29.0;;;27.0;;
22673;SDS011;11504;43.334;21.918;2023-04-05T09:10:29;28.0;;;26.0;;
22673;SDS011;11504;43.334;21.918;2023-04-05T09:15:06;28.0;;;26.0;;
22673;SDS011;11504;43.334;21.918;2023-04-05T09:19:45;28.0;;;26.0;;
22673;SDS011;11504;43.334;21.918;2023-04-05T09:24:28;28.0;;;26.0;;
22673;SDS011;11504;43.334;21.918;2023-04-05T09:29:21;28.0;;;26.0;;
22673;SDS011;11504;43.334;21.918;2023-04-05T09:34:05;28.0;;;26.0;;
22673;SDS011;11504;43.334;21.918;2023-04-05T09:38:42;28.0;;;26.0;;
22673;SDS011;11504;43.334;21.918;2023-04-05T09:43:36;21.0;;;20.0;;
22673;SDS011;11504;43.334;21.918;2023-04-05T09:48:17;21.0;;;20.0;;
22673;SDS011;11504;43.334;21.918;2023-04-05T09:53:04;21.0;;;20.0;;
22673;SDS011;11504;43.334;21.918;2023-04-05T09:57:47;21.0;;;20.0;;
22673;SDS011;11504;43.334;21.918;2023-04-05T10:02:24;23.0;;;20.0;;
22673;SDS011;11504;43.334;21.918;2023-04-05T10:07:15;23.0;;;20.0;;
22673;SDS011;11504;43.334;21.918;2023-04-05T10:11:55;25.0;;;20.0;;
22673;SDS011;11504;43.334;21.918;2023-04-05T10:16:41;25.0;;;20.0;;
22673;SDS011;11504;43.334;21.918;2023-04-05T10:21:49;25.0;;;20.0;;
22673;SDS011;11504;43.334;21.918;2023-04-05T10:26:44;25.0;;;20.0;;
22673;SDS011;11504;43.334;21.918;2023-04-05T10:31:45;25.0;;;20.0;;
22673;SDS011;11504;43.334;21.918;2023-04-05T10:46:25;27.0;;;23.0;;
22673;SDS011;11504;43.334;21.918;2023-04-05T10:51:04;27.0;;;23.0;;
22673;SDS011;11504;43.334;21.918;2023-04-05T10:55:44;27.0;;;23.0;;
22673;SDS011;11504;43.334;21.918;2023-04-05T11:00:24;27.0;;;23.0;;
22673;SDS011;11504;43.334;21.918;2023-04-05T11:05:05;27.0;;;23.0;;
22673;SDS011;11504;43.334;21.918;2023-04-05T11:10:17;27.0;;;23.0;;
22673;SDS011;11504;43.334;21.918;2023-04-05T11:15:31;27.0;;;23.0;;
22673;SDS011;11504;43.334;21.918;2023-04-05T11:20:11;27.0;;;23.0;;
22673;SDS011;11504;43.334;21.918;2023-04-05T11:24:54;24.0;;;21.0;;
22673;SDS011;11504;43.334;21.918;2023-04-05T11:29:49;24.0;;;21.0;;
22673;SDS011;11504;43.334;21.918;2023-04-05T11:34:26;21.0;;;19.0;;
22673;SDS011;11504;43.334;21.918;2023-04-05T11:39:34;21.0;;;19.0;;
22673;SDS011;11504;43.334;21.918;2023-04-05T11:44:15;22.0;;;20.0;;
22673;SDS011;11504;43.334;21.918;2023-04-05T11:48:52;22.0;;;20.0;;
22673;SDS011;11504;43.334;21.918;2023-04-05T11:53:28;23.0;;;21.0;;
22673;SDS011;11504;43.334;21.918;2023-04-05T11:58:18;23.0;;;21.0;;
22673;SDS011;11504;43.334;21.918;2023-04-05T12:02:56;24.0;;;21.0;;
22673;SDS011;11504;43.334;21.918;2023-04-05T12:07:32;24.0;;;21.0;;
22673;SDS011;11504;43.334;21.918;2023-04-05T12:12:16;24.0;;;21.0;;
22673;SDS011;11504;43.334;21.918;2023-04-05T12:16:52;24.0;;;21.0;;
22673;SDS011;11504;43.334;21.918;2023-04-05T12:21:30;24.0;;;21.0;;
22673;SDS011;11504;43.334;21.918;2023-04-05T12:26:07;26.0;;;24.0;;
22673;SDS011;11504;43.334;21.918;2023-04-05T12:30:51;26.0;;;24.0;;
22673;SDS011;11504;43.334;21.918;2023-04-05T12:35:33;29.0;;;27.0;;
22673;SDS011;11504;43.334;21.918;2023-04-05T12:40:18;29.0;;;27.0;;
22673;SDS011;11504;43.334;21.918;2023-04-05T12:45:11;28.0;;;26.0;;
22673;SDS011;11504;43.334;21.918;2023-04-05T12:49:49;28.0;;;26.0;;
22673;SDS011;11504;43.334;21.918;2023-04-05T12:54:27;26.0;;;25.0;;
22673;SDS011;11504;43.334;21.918;2023-04-05T12:59:06;26.0;;;25.0;;
22673;SDS011;11504;43.334;21.918;2023-04-05T13:03:43;27.0;;;26.0;;
22673;SDS011;11504;43.334;21.918;2023-04-05T13:08:21;27.0;;;26.0;;
22673;SDS011;11504;43.334;21.918;2023-04-05T13:12:58;28.0;;;26.0;;
22673;SDS011;11504;43.334;21.918;2023-04-05T13:17:34;28.0;;;26.0;;
22673;SDS011;11504;43.334;21.918;2023-04-05T13:22:11;28.0;;;26.0;;
22673;SDS011;11504;43.334;21.918;2023-04-05T13:26:48;28.0;;;26.0;;
22673;SDS011;11504;43.334;21.918;2023-04-05T13:31:26;28.0;;;26.0;;
22673;SDS011;11504;43.334;21.918;2023-04-05T13:36:03;29.0;;;27.0;;
22673;SDS011;11504;43.334;21.918;2023-04-05T13:40:42;29.0;;;27.0;;
22673;SDS011;11504;43.334;21.918;2023-04-05T13:45:20;28.0;;;26.0;;
22673;SDS011;11504;43.334;21.918;2023-04-05T13:49:56;28.0;;;26.0;;
22673;SDS011;11504;43.334;21.918;2023-04-05T13:54:33;27.0;;;25.0;;
22673;SDS011;11504;43.334;21.918;2023-04-05T13:59:10;27.0;;;25.0;;
22673;SDS011;11504;43.334;21.918;2023-04-05T14:03:47;27.0;;;25.0;;
22673;SDS011;11504;43.334;21.918;2023-04-05T14:08:24;27.0;;;25.0;;
22673;SDS011;11504;43.334;21.918;2023-04-05T14:13:02;27.0;;;25.0;;
22673;SDS011;11504;43.334;21.918;2023-04-05T14:17:39;27.0;;;25.0;;
22673;SDS011;11504;43.334;21.918;2023-04-05T14:22:16;27.0;;;25.0;;
22673;SDS011;11504;43.334;21.918;2023-04-05T14:26:52;27.0;;;25.0;;
22673;SDS011;11504;43.334;21.918;2023-04-05T14:31:28;27.0;;;25.0;;
22673;SDS011;11504;43.334;21.918;2023-04-05T14:36:05;27.0;;;25.0;;
22673;SDS011;11504;43.334;21.918;2023-04-05T14:40:42;27.0;;;25.0;;
22673;SDS011;11504;43.334;21.918;2023-04-05T14:45:18;28.0;;;26.0;;
22673;SDS011;11504;43.334;21.918;2023-04-05T14:49:55;28.0;;;26.0;;
22673;SDS011;11504;43.334;21.918;2023-04-05T14:54:32;28.0;;;26.0;;
22673;SDS011;11504;43.334;21.918;2023-04-05T14:59:08;28.0;;;26.0;;
22673;SDS011;11504;43.334;21.918;2023-04-05T15:03:45;28.0;;;26.0;;
22673;SDS011;11504;43.334;21.918;2023-04-05T15:08:22;28.0;;;26.0;;
22673;SDS011;11504;43.334;21.918;2023-04-05T15:12:59;29.0;;;27.0;;
22673;SDS011;11504;43.334;21.918;2023-04-05T15:17:36;29.0;;;27.0;;
22673;SDS011;11504;43.334;21.918;2023-04-05T15:22:14;28.0;;;26.0;;
22673;SDS011;11504;43.334;21.918;2023-04-05T15:26:51;28.0;;;26.0;;
22673;SDS011;11504;43.334;21.918;2023-04-05T15:31:28;28.0;;;26.0;;
22673;SDS011;11504;43.334;21.918;2023-04-05T15:36:10;28.0;;;25.0;;
22673;SDS011;11504;43.334;21.918;2023-04-05T15:40:47;28.0;;;25.0;;
22673;SDS011;11504;43.334;21.918;2023-04-05T15:45:24;27.0;;;24.0;;
22673;SDS011;11504;43.334;21.918;2023-04-05T15:50:01;27.0;;;24.0;;
22673;SDS011;11504;43.334;21.918;2023-04-05T15:54:38;26.0;;;22.0;;
22673;SDS011;11504;43.334;21.918;2023-04-05T15:59:14;26.0;;;22.0;;
22673;SDS011;11504;43.334;21.918;2023-04-05T16:03:52;27.0;;;24.0;;
22673;SDS011;11504;43.334;21.918;2023-04-05T16:08:28;27.0;;;24.0;;
22673;SDS011;11504;43.334;21.918;2023-04-05T16:13:06;28.0;;;26.0;;
22673;SDS011;11504;43.334;21.918;2023-04-05T16:17:43;28.0;;;26.0;;
22673;SDS011;11504;43.334;21.918;2023-04-05T16:22:20;30.0;;;28.0;;
22673;SDS011;11504;43.334;21.918;2023-04-05T16:26:58;30.0;;;28.0;;
22673;SDS011;11504;43.334;21.918;2023-04-05T16:31:36;30.0;;;28.0;;
22673;SDS011;11504;43.334;21.918;2023-04-05T16:36:13;33.0;;;29.0;;
22673;SDS011;11504;43.334;21.918;2023-04-05T16:40:51;33.0;;;29.0;;
22673;SDS011;11504;43.334;21.918;2023-04-05T16:45:28;36.0;;;32.0;;
22673;SDS011;11504;43.334;21.918;2023-04-05T16:50:07;36.0;;;32.0;;
22673;SDS011;11504;43.334;21.918;2023-04-05T16:54:46;39.0;;;36.0;;
22673;SDS011;11504;43.334;21.918;2023-04-05T16:59:23;39.0;;;36.0;;
22673;SDS011;11504;43.334;21.918;2023-04-05T17:03:59;39.0;;;36.0;;
22673;SDS011;11504;43.334;21.918;2023-04-05T17:08:36;39.0;;;36.0;;
22673;SDS011;11504;43.334;21.918;2023-04-05T17:13:12;39.0;;;35.0;;
22673;SDS011;11504;43.334;21.918;2023-04-05T17:17:49;39.0;;;35.0;;
22673;SDS011;11504;43.334;21.918;2023-04-05T17:22:25;40.0;;;35.0;;
22673;SDS011;11504;43.334;21.918;2023-04-05T17:27:04;40.0;;;35.0;;
22673;SDS011;11504;43.334;21.918;2023-04-05T17:31:40;40.0;;;35.0;;
22673;SDS011;11504;43.334;21.918;2023-04-05T17:36:17;41.0;;;35.0;;
22673;SDS011;11504;43.334;21.918;2023-04-05T17:40:54;41.0;;;35.0;;
22673;SDS011;11504;43.334;21.918;2023-04-05T17:45:31;42.0;;;36.0;;
22673;SDS011;11504;43.334;21.918;2023-04-05T17:50:10;42.0;;;36.0;;
22673;SDS011;11504;43.334;21.918;2023-04-05T17:54:46;42.0;;;38.0;;
22673;SDS011;11504;43.334;21.918;2023-04-05T17:59:24;42.0;;;38.0;;
22673;SDS011;11504;43.334;21.918;2023-04-05T18:04:01;44.0;;;40.0;;
22673;SDS011;11504;43.334;21.918;2023-04-05T18:08:38;44.0;;;40.0;;
22673;SDS011;11504;43.334;21.918;2023-04-05T18:13:15;45.0;;;41.0;;
22673;SDS011;11504;43.334;21.918;2023-04-05T18:17:52;45.0;;;41.0;;
22673;SDS011;11504;43.334;21.918;2023-04-05T18:22:31;44.0;;;40.0;;
22673;SDS011;11504;43.334;21.918;2023-04-05T18:27:08;44.0;;;40.0;;
22673;SDS011;11504;43.334;21.918;2023-04-05T18:31:45;44.0;;;40.0;;
22673;SDS011;11504;43.334;21.918;2023-04-05T18:36:23;42.0;;;40.0;;
22673;SDS011;11504;43.334;21.918;2023-04-05T18:41:02;42.0;;;40.0;;
22673;SDS011;11504;43.334;21.918;2023-04-05T18:45:40;40.0;;;36.0;;
22673;SDS011;11504;43.334;21.918;2023-04-05T18:50:17;40.0;;;36.0;;
22673;SDS011;11504;43.334;21.918;2023-04-05T18:54:54;37.0;;;31.0;;
22673;SDS011;11504;43.334;21.918;2023-04-05T18:59:31;37.0;;;31.0;;
22673;SDS011;11504;43.334;21.918;2023-04-05T19:04:08;35.0;;;30.0;;
22673;SDS011;11504;43.334;21.918;2023-04-05T19:08:45;35.0;;;30.0;;
22673;SDS011;11504;43.334;21.918;2023-04-05T19:13:22;33.0;;;30.0;;
22673;SDS011;11504;43.334;21.918;2023-04-05T19:17:59;33.0;;;30.0;;
22673;SDS011;11504;43.334;21.918;2023-04-05T19:22:36;34.0;;;30.0;;
22673;SDS011;11504;43.334;21.918;2023-04-05T19:27:12;34.0;;;30.0;;
22673;SDS011;11504;43.334;21.918;2023-04-05T19:31:49;34.0;;;30.0;;
22673;SDS011;11504;43.334;21.918;2023-04-05T19:36:26;34.0;;;29.0;;
22673;SDS011;11504;43.334;21.918;2023-04-05T19:41:03;34.0;;;29.0;;
22673;SDS011;11504;43.334;21.918;2023-04-05T19:45:41;34.0;;;30.0;;
22673;SDS011;11504;43.334;21.918;2023-04-05T19:50:47;34.0;;;30.0;;
22673;SDS011;11504;43.334;21.918;2023-04-05T19:55:33;34.0;;;30.0;;
22673;SDS011;11504;43.334;21.918;2023-04-05T20:00:37;34.0;;;30.0;;
22673;SDS011;11504;43.334;21.918;2023-04-05T20:06:05;37.0;;;33.0;;
22673;SDS011;11504;43.334;21.918;2023-04-05T20:10:43;37.0;;;33.0;;
22673;SDS011;11504;43.334;21.918;2023-04-05T20:15:37;40.0;;;36.0;;
22673;SDS011;11504;43.334;21.918;2023-04-05T20:20:16;40.0;;;36.0;;
22673;SDS011;11504;43.334;21.918;2023-04-05T20:24:53;40.0;;;36.0;;
22673;SDS011;11504;43.334;21.918;2023-04-05T20:29:30;40.0;;;36.0;;
22673;SDS011;11504;43.334;21.918;2023-04-05T20:34:13;41.0;;;36.0;;
22673;SDS011;11504;43.334;21.918;2023-04-05T20:39:05;41.0;;;36.0;;
22673;SDS011;11504;43.334;21.918;2023-04-05T20:43:43;42.0;;;38.0;;
22673;SDS011;11504;43.334;21.918;2023-04-05T20:48:22;42.0;;;38.0;;
22673;SDS011;11504;43.334;21.918;2023-04-05T20:52:59;43.0;;;40.0;;
22673;SDS011;11504;43.334;21.918;2023-04-05T20:57:35;43.0;;;40.0;;
22673;SDS011;11504;43.334;21.918;2023-04-05T21:02:12;43.0;;;40.0;;
22673;SDS011;11504;43.334;21.918;2023-04-05T21:06:49;40.0;;;38.0;;
22673;SDS011;11504;43.334;21.918;2023-04-05T21:11:25;40.0;;;38.0;;
22673;SDS011;11504;43.334;21.918;2023-04-05T21:16:03;38.0;;;36.0;;
22673;SDS011;11504;43.334;21.918;2023-04-05T21:20:40;38.0;;;36.0;;
22673;SDS011;11504;43.334;21.918;2023-04-05T21:25:18;36.0;;;34.0;;
22673;SDS011;11504;43.334;21.918;2023-04-05T21:29:54;36.0;;;34.0;;
22673;SDS011;11504;43.334;21.918;2023-04-05T21:34:31;33.0;;;32.0;;
22673;SDS011;11504;43.334;21.918;2023-04-05T21:39:07;33.0;;;32.0;;
22673;SDS011;11504;43.334;21.918;2023-04-05T21:43:44;36.0;;;32.0;;
22673;SDS011;11504;43.334;21.918;2023-04-05T21:48:20;36.0;;;32.0;;
22673;SDS011;11504;43.334;21.918;2023-04-05T21:52:57;38.0;;;33.0;;
22673;SDS011;11504;43.334;21.918;2023-04-05T21:57:34;38.0;;;33.0;;
22673;SDS011;11504;43.334;21.918;2023-04-05T22:02:11;38.0;;;33.0;;
22673;SDS011;11504;43.334;21.918;2023-04-05T22:06:48;36.0;;;32.0;;
22673;SDS011;11504;43.334;21.918;2023-04-05T22:11:25;36.0;;;32.0;;
22673;SDS011;11504;43.334;21.918;2023-04-05T22:16:02;35.0;;;30.0;;
22673;SDS011;11504;43.334;21.918;2023-04-05T22:20:41;35.0;;;30.0;;
22673;SDS011;11504;43.334;21.918;2023-04-05T22:25:17;34.0;;;30.0;;
22673;SDS011;11504;43.334;21.918;2023-04-05T22:29:54;34.0;;;30.0;;
22673;SDS011;11504;43.334;21.918;2023-04-05T22:34:30;34.0;;;31.0;;
22673;SDS011;11504;43.334;21.918;2023-04-05T22:39:07;34.0;;;31.0;;
22673;SDS011;11504;43.334;21.918;2023-04-05T22:43:44;38.0;;;34.0;;
22673;SDS011;11504;43.334;21.918;2023-04-05T22:48:20;38.0;;;34.0;;
22673;SDS011;11504;43.334;21.918;2023-04-05T22:52:57;41.0;;;36.0;;
22673;SDS011;11504;43.334;21.918;2023-04-05T22:57:34;41.0;;;36.0;;
22673;SDS011;11504;43.334;21.918;2023-04-05T23:02:11;41.0;;;36.0;;
22673;SDS011;11504;43.334;21.918;2023-04-05T23:06:48;43.0;;;38.0;;
22673;SDS011;11504;43.334;21.918;2023-04-05T23:11:24;43.0;;;38.0;;
22673;SDS011;11504;43.334;21.918;2023-04-05T23:16:01;45.0;;;40.0;;
22673;SDS011;11504;43.334;21.918;2023-04-05T23:20:39;45.0;;;40.0;;
22673;SDS011;11504;43.334;21.918;2023-04-05T23:25:16;42.0;;;37.0;;
22673;SDS011;11504;43.334;21.918;2023-04-05T23:29:53;42.0;;;37.0;;
22673;SDS011;11504;43.334;21.918;2023-04-05T23:34:30;39.0;;;34.0;;
22673;SDS011;11504;43.334;21.918;2023-04-05T23:39:06;39.0;;;34.0;;
22673;SDS011;11504;43.334;21.918;2023-04-05T23:43:43;36.0;;;30.0;;
22673;SDS011;11504;43.334;21.918;2023-04-05T23:48:20;36.0;;;30.0;;
22673;SDS011;11504;43.334;21.918;2023-04-05T23:52:57;34.0;;;27.0;;
22673;SDS011;11504;43.334;21.918;2023-04-05T23:57:34;34.0;;;27.0;;
